sensor_id;sensor_type;location;lat;lon;timestamp;temperature;humidity
22006;DHT22;11167;46.988;15.470;2022-11-13T00:01:38;9.80;88.70
22006;DHT22;11167;46.988;15.470;2022-11-13T00:03:40;9.80;88.80
22006;DHT22;11167;46.988;15.470;2022-11-13T00:05:41;9.80;89.10
22006;DHT22;11167;46.988;15.470;2022-11-13T00:07:42;9.80;88.60
22006;DHT22;11167;46.988;15.470;2022-11-13T00:09:43;9.80;88.60
22006;DHT22;11167;46.988;15.470;2022-11-13T00:11:44;9.80;88.60
22006;DHT22;11167;46.988;15.470;2022-11-13T00:13:47;9.80;88.60
22006;DHT22;11167;46.988;15.470;2022-11-13T00:16:00;9.80;89.60
22006;DHT22;11167;46.988;15.470;2022-11-13T00:18:02;9.80;88.60
22006;DHT22;11167;46.988;15.470;2022-11-13T00:20:04;9.80;88.70
22006;DHT22;11167;46.988;15.470;2022-11-13T00:22:05;9.80;89.50
22006;DHT22;11167;46.988;15.470;2022-11-13T00:24:07;9.80;88.60
22006;DHT22;11167;46.988;15.470;2022-11-13T00:26:11;9.80;88.70
22006;DHT22;11167;46.988;15.470;2022-11-13T00:28:12;9.80;88.70
22006;DHT22;11167;46.988;15.470;2022-11-13T00:30:14;9.80;88.80
22006;DHT22;11167;46.988;15.470;2022-11-13T00:32:15;9.80;88.70
22006;DHT22;11167;46.988;15.470;2022-11-13T00:34:16;9.80;88.70
22006;DHT22;11167;46.988;15.470;2022-11-13T00:36:23;9.80;88.80
22006;DHT22;11167;46.988;15.470;2022-11-13T00:38:24;9.80;88.70
22006;DHT22;11167;46.988;15.470;2022-11-13T00:40:25;9.80;88.70
22006;DHT22;11167;46.988;15.470;2022-11-13T00:42:26;9.80;88.80
22006;DHT22;11167;46.988;15.470;2022-11-13T00:44:28;9.80;88.70
22006;DHT22;11167;46.988;15.470;2022-11-13T00:46:29;9.80;88.70
22006;DHT22;11167;46.988;15.470;2022-11-13T00:48:30;9.80;88.70
22006;DHT22;11167;46.988;15.470;2022-11-13T00:50:31;9.70;88.70
22006;DHT22;11167;46.988;15.470;2022-11-13T00:52:33;9.70;88.60
22006;DHT22;11167;46.988;15.470;2022-11-13T00:54:34;9.70;88.80
22006;DHT22;11167;46.988;15.470;2022-11-13T00:56:35;9.80;88.80
22006;DHT22;11167;46.988;15.470;2022-11-13T00:58:36;9.80;88.80
22006;DHT22;11167;46.988;15.470;2022-11-13T01:00:38;9.70;89.30
22006;DHT22;11167;46.988;15.470;2022-11-13T01:02:39;9.70;88.80
22006;DHT22;11167;46.988;15.470;2022-11-13T01:04:41;9.70;88.70
22006;DHT22;11167;46.988;15.470;2022-11-13T01:06:43;9.70;88.70
22006;DHT22;11167;46.988;15.470;2022-11-13T01:08:45;9.70;88.70
22006;DHT22;11167;46.988;15.470;2022-11-13T01:10:48;9.70;88.70
22006;DHT22;11167;46.988;15.470;2022-11-13T01:12:49;9.70;89.60
22006;DHT22;11167;46.988;15.470;2022-11-13T01:14:50;9.70;88.70
22006;DHT22;11167;46.988;15.470;2022-11-13T01:16:51;9.70;88.80
22006;DHT22;11167;46.988;15.470;2022-11-13T01:18:54;9.70;88.80
22006;DHT22;11167;46.988;15.470;2022-11-13T01:21:03;9.70;88.80
22006;DHT22;11167;46.988;15.470;2022-11-13T01:23:05;9.70;88.80
22006;DHT22;11167;46.988;15.470;2022-11-13T01:25:06;9.70;88.80
22006;DHT22;11167;46.988;15.470;2022-11-13T01:27:07;9.70;88.80
22006;DHT22;11167;46.988;15.470;2022-11-13T01:29:09;9.70;88.80
22006;DHT22;11167;46.988;15.470;2022-11-13T01:31:15;9.70;88.90
22006;DHT22;11167;46.988;15.470;2022-11-13T01:33:16;9.70;88.80
22006;DHT22;11167;46.988;15.470;2022-11-13T01:35:17;9.70;88.80
22006;DHT22;11167;46.988;15.470;2022-11-13T01:37:18;9.70;89.80
22006;DHT22;11167;46.988;15.470;2022-11-13T01:39:20;9.70;89.20
22006;DHT22;11167;46.988;15.470;2022-11-13T01:41:27;9.70;88.80
22006;DHT22;11167;46.988;15.470;2022-11-13T01:43:31;9.70;88.80
22006;DHT22;11167;46.988;15.470;2022-11-13T01:48:01;9.70;88.80
22006;DHT22;11167;46.988;15.470;2022-11-13T01:50:04;9.60;88.80
22006;DHT22;11167;46.988;15.470;2022-11-13T01:52:08;9.60;88.80
22006;DHT22;11167;46.988;15.470;2022-11-13T01:54:13;9.60;88.80
22006;DHT22;11167;46.988;15.470;2022-11-13T01:56:15;9.60;88.90
22006;DHT22;11167;46.988;15.470;2022-11-13T01:58:17;9.60;88.80
22006;DHT22;11167;46.988;15.470;2022-11-13T02:00:18;9.60;88.90
22006;DHT22;11167;46.988;15.470;2022-11-13T02:02:19;9.60;88.90
22006;DHT22;11167;46.988;15.470;2022-11-13T02:04:21;9.60;88.80
22006;DHT22;11167;46.988;15.470;2022-11-13T02:06:23;9.60;88.80
22006;DHT22;11167;46.988;15.470;2022-11-13T02:08:25;9.60;88.90
22006;DHT22;11167;46.988;15.470;2022-11-13T02:10:26;9.60;88.90
22006;DHT22;11167;46.988;15.470;2022-11-13T02:12:37;9.60;88.90
22006;DHT22;11167;46.988;15.470;2022-11-13T02:14:43;9.60;88.90
22006;DHT22;11167;46.988;15.470;2022-11-13T02:16:47;9.60;89.00
22006;DHT22;11167;46.988;15.470;2022-11-13T02:18:50;9.50;88.90
22006;DHT22;11167;46.988;15.470;2022-11-13T02:23:49;9.50;89.00
22006;DHT22;11167;46.988;15.470;2022-11-13T02:25:51;9.50;89.00
22006;DHT22;11167;46.988;15.470;2022-11-13T02:27:53;9.50;89.00
22006;DHT22;11167;46.988;15.470;2022-11-13T02:29:54;9.50;89.10
22006;DHT22;11167;46.988;15.470;2022-11-13T02:31:55;9.40;89.00
22006;DHT22;11167;46.988;15.470;2022-11-13T02:33:56;9.40;89.70
22006;DHT22;11167;46.988;15.470;2022-11-13T02:35:58;9.40;89.10
22006;DHT22;11167;46.988;15.470;2022-11-13T02:38:02;9.40;89.00
22006;DHT22;11167;46.988;15.470;2022-11-13T02:40:06;9.40;89.00
22006;DHT22;11167;46.988;15.470;2022-11-13T02:42:09;9.40;89.00
22006;DHT22;11167;46.988;15.470;2022-11-13T02:44:10;9.40;89.00
22006;DHT22;11167;46.988;15.470;2022-11-13T02:46:11;9.40;89.10
22006;DHT22;11167;46.988;15.470;2022-11-13T02:48:12;9.40;89.00
22006;DHT22;11167;46.988;15.470;2022-11-13T02:50:14;9.40;89.10
22006;DHT22;11167;46.988;15.470;2022-11-13T02:52:15;9.40;89.10
22006;DHT22;11167;46.988;15.470;2022-11-13T02:54:16;9.30;88.90
22006;DHT22;11167;46.988;15.470;2022-11-13T02:56:17;9.30;89.00
22006;DHT22;11167;46.988;15.470;2022-11-13T02:58:19;9.30;89.00
22006;DHT22;11167;46.988;15.470;2022-11-13T03:00:20;9.30;89.00
22006;DHT22;11167;46.988;15.470;2022-11-13T03:02:21;9.30;89.50
22006;DHT22;11167;46.988;15.470;2022-11-13T03:04:22;9.30;89.00
22006;DHT22;11167;46.988;15.470;2022-11-13T03:06:23;9.30;89.00
22006;DHT22;11167;46.988;15.470;2022-11-13T03:08:25;9.30;89.10
22006;DHT22;11167;46.988;15.470;2022-11-13T03:10:29;9.20;89.10
22006;DHT22;11167;46.988;15.470;2022-11-13T03:12:30;9.20;89.00
22006;DHT22;11167;46.988;15.470;2022-11-13T03:14:32;9.20;89.00
22006;DHT22;11167;46.988;15.470;2022-11-13T03:16:33;9.20;89.10
22006;DHT22;11167;46.988;15.470;2022-11-13T03:18:35;9.20;89.10
22006;DHT22;11167;46.988;15.470;2022-11-13T03:20:38;9.20;89.10
22006;DHT22;11167;46.988;15.470;2022-11-13T03:22:40;9.20;89.10
22006;DHT22;11167;46.988;15.470;2022-11-13T03:24:41;9.20;89.10
22006;DHT22;11167;46.988;15.470;2022-11-13T03:26:42;9.10;89.10
22006;DHT22;11167;46.988;15.470;2022-11-13T03:28:43;9.10;89.20
22006;DHT22;11167;46.988;15.470;2022-11-13T03:30:46;9.10;89.20
22006;DHT22;11167;46.988;15.470;2022-11-13T03:32:56;9.10;89.10
22006;DHT22;11167;46.988;15.470;2022-11-13T03:34:55;9.10;89.10
22006;DHT22;11167;46.988;15.470;2022-11-13T03:36:56;9.10;89.20
22006;DHT22;11167;46.988;15.470;2022-11-13T03:38:58;9.10;89.20
22006;DHT22;11167;46.988;15.470;2022-11-13T03:40:59;9.00;90.00
22006;DHT22;11167;46.988;15.470;2022-11-13T03:43:00;9.00;89.10
22006;DHT22;11167;46.988;15.470;2022-11-13T03:45:03;9.00;89.10
22006;DHT22;11167;46.988;15.470;2022-11-13T03:47:05;9.00;89.90
22006;DHT22;11167;46.988;15.470;2022-11-13T03:49:06;9.00;89.20
22006;DHT22;11167;46.988;15.470;2022-11-13T03:51:07;9.00;90.00
22006;DHT22;11167;46.988;15.470;2022-11-13T03:53:08;9.00;90.00
22006;DHT22;11167;46.988;15.470;2022-11-13T03:55:09;9.00;89.20
22006;DHT22;11167;46.988;15.470;2022-11-13T03:57:10;8.90;89.10
22006;DHT22;11167;46.988;15.470;2022-11-13T03:59:11;8.90;89.20
22006;DHT22;11167;46.988;15.470;2022-11-13T04:01:13;8.90;89.10
22006;DHT22;11167;46.988;15.470;2022-11-13T04:03:15;8.90;89.10
22006;DHT22;11167;46.988;15.470;2022-11-13T04:05:16;8.90;89.10
22006;DHT22;11167;46.988;15.470;2022-11-13T04:07:18;8.90;89.20
22006;DHT22;11167;46.988;15.470;2022-11-13T04:09:19;8.90;89.20
22006;DHT22;11167;46.988;15.470;2022-11-13T04:11:20;8.80;89.10
22006;DHT22;11167;46.988;15.470;2022-11-13T04:13:21;8.90;89.10
22006;DHT22;11167;46.988;15.470;2022-11-13T04:15:23;8.80;89.20
22006;DHT22;11167;46.988;15.470;2022-11-13T04:17:24;8.80;89.20
22006;DHT22;11167;46.988;15.470;2022-11-13T04:19:25;8.80;89.10
22006;DHT22;11167;46.988;15.470;2022-11-13T04:21:26;8.80;89.10
22006;DHT22;11167;46.988;15.470;2022-11-13T04:23:28;8.80;89.10
22006;DHT22;11167;46.988;15.470;2022-11-13T04:25:29;8.70;89.10
22006;DHT22;11167;46.988;15.470;2022-11-13T04:27:30;8.80;89.10
22006;DHT22;11167;46.988;15.470;2022-11-13T04:29:31;8.70;89.10
22006;DHT22;11167;46.988;15.470;2022-11-13T04:31:33;8.70;89.10
22006;DHT22;11167;46.988;15.470;2022-11-13T04:33:34;8.70;89.20
22006;DHT22;11167;46.988;15.470;2022-11-13T04:35:35;8.70;89.10
22006;DHT22;11167;46.988;15.470;2022-11-13T04:37:36;8.70;89.20
22006;DHT22;11167;46.988;15.470;2022-11-13T04:39:38;8.70;89.10
22006;DHT22;11167;46.988;15.470;2022-11-13T04:41:39;8.60;89.10
22006;DHT22;11167;46.988;15.470;2022-11-13T04:43:58;8.60;89.20
22006;DHT22;11167;46.988;15.470;2022-11-13T04:46:00;8.60;89.20
22006;DHT22;11167;46.988;15.470;2022-11-13T04:48:01;8.60;89.20
22006;DHT22;11167;46.988;15.470;2022-11-13T04:50:04;8.60;89.20
22006;DHT22;11167;46.988;15.470;2022-11-13T04:52:06;8.60;89.30
22006;DHT22;11167;46.988;15.470;2022-11-13T04:54:07;8.50;89.20
22006;DHT22;11167;46.988;15.470;2022-11-13T04:56:08;8.50;89.10
22006;DHT22;11167;46.988;15.470;2022-11-13T04:58:10;8.50;89.10
22006;DHT22;11167;46.988;15.470;2022-11-13T05:00:12;8.50;89.10
22006;DHT22;11167;46.988;15.470;2022-11-13T05:02:13;8.50;89.20
22006;DHT22;11167;46.988;15.470;2022-11-13T05:04:14;8.50;89.20
22006;DHT22;11167;46.988;15.470;2022-11-13T05:06:16;8.50;89.20
22006;DHT22;11167;46.988;15.470;2022-11-13T05:08:17;8.40;89.10
22006;DHT22;11167;46.988;15.470;2022-11-13T05:10:18;8.40;89.10
22006;DHT22;11167;46.988;15.470;2022-11-13T05:12:20;8.50;89.20
22006;DHT22;11167;46.988;15.470;2022-11-13T05:14:21;8.40;89.20
22006;DHT22;11167;46.988;15.470;2022-11-13T05:16:23;8.40;89.20
22006;DHT22;11167;46.988;15.470;2022-11-13T05:18:24;8.40;89.20
22006;DHT22;11167;46.988;15.470;2022-11-13T05:20:26;8.40;89.20
22006;DHT22;11167;46.988;15.470;2022-11-13T05:22:27;8.40;89.20
22006;DHT22;11167;46.988;15.470;2022-11-13T05:24:28;8.40;89.20
22006;DHT22;11167;46.988;15.470;2022-11-13T05:26:30;8.30;89.10
22006;DHT22;11167;46.988;15.470;2022-11-13T05:28:33;8.30;89.10
22006;DHT22;11167;46.988;15.470;2022-11-13T05:30:34;8.30;89.40
22006;DHT22;11167;46.988;15.470;2022-11-13T05:32:35;8.30;89.20
22006;DHT22;11167;46.988;15.470;2022-11-13T05:34:37;8.30;89.10
22006;DHT22;11167;46.988;15.470;2022-11-13T05:36:38;8.30;89.10
22006;DHT22;11167;46.988;15.470;2022-11-13T05:38:40;8.30;89.10
22006;DHT22;11167;46.988;15.470;2022-11-13T05:40:41;8.30;89.20
22006;DHT22;11167;46.988;15.470;2022-11-13T05:42:43;8.20;89.10
22006;DHT22;11167;46.988;15.470;2022-11-13T05:44:44;8.20;89.10
22006;DHT22;11167;46.988;15.470;2022-11-13T05:46:45;8.20;89.10
22006;DHT22;11167;46.988;15.470;2022-11-13T05:48:58;8.20;89.20
22006;DHT22;11167;46.988;15.470;2022-11-13T05:51:06;8.20;89.20
22006;DHT22;11167;46.988;15.470;2022-11-13T05:53:03;8.20;89.20
22006;DHT22;11167;46.988;15.470;2022-11-13T05:55:06;8.20;89.20
22006;DHT22;11167;46.988;15.470;2022-11-13T05:57:07;8.20;89.20
22006;DHT22;11167;46.988;15.470;2022-11-13T05:59:08;8.20;89.20
22006;DHT22;11167;46.988;15.470;2022-11-13T06:01:12;8.20;89.30
22006;DHT22;11167;46.988;15.470;2022-11-13T06:03:14;8.20;89.20
22006;DHT22;11167;46.988;15.470;2022-11-13T06:05:15;8.20;89.20
22006;DHT22;11167;46.988;15.470;2022-11-13T06:07:16;8.20;89.30
22006;DHT22;11167;46.988;15.470;2022-11-13T06:09:17;8.20;89.30
22006;DHT22;11167;46.988;15.470;2022-11-13T06:11:23;8.20;89.30
22006;DHT22;11167;46.988;15.470;2022-11-13T06:13:25;8.20;89.40
22006;DHT22;11167;46.988;15.470;2022-11-13T06:15:26;8.20;89.30
22006;DHT22;11167;46.988;15.470;2022-11-13T06:17:27;8.10;90.00
22006;DHT22;11167;46.988;15.470;2022-11-13T06:19:28;8.10;89.30
22006;DHT22;11167;46.988;15.470;2022-11-13T06:21:31;8.10;89.20
22006;DHT22;11167;46.988;15.470;2022-11-13T06:23:34;8.20;89.30
22006;DHT22;11167;46.988;15.470;2022-11-13T06:25:35;8.10;89.20
22006;DHT22;11167;46.988;15.470;2022-11-13T06:27:36;8.10;89.30
22006;DHT22;11167;46.988;15.470;2022-11-13T06:29:38;8.10;89.30
22006;DHT22;11167;46.988;15.470;2022-11-13T06:31:39;8.10;89.30
22006;DHT22;11167;46.988;15.470;2022-11-13T06:33:41;8.10;89.30
22006;DHT22;11167;46.988;15.470;2022-11-13T06:35:43;8.10;90.10
22006;DHT22;11167;46.988;15.470;2022-11-13T06:37:44;8.10;89.30
22006;DHT22;11167;46.988;15.470;2022-11-13T06:39:45;8.10;89.30
22006;DHT22;11167;46.988;15.470;2022-11-13T06:41:47;8.10;89.40
22006;DHT22;11167;46.988;15.470;2022-11-13T06:43:48;8.10;89.70
22006;DHT22;11167;46.988;15.470;2022-11-13T06:45:49;8.10;89.40
22006;DHT22;11167;46.988;15.470;2022-11-13T06:47:52;8.10;89.40
22006;DHT22;11167;46.988;15.470;2022-11-13T06:49:54;8.10;89.40
22006;DHT22;11167;46.988;15.470;2022-11-13T06:51:55;8.10;89.40
22006;DHT22;11167;46.988;15.470;2022-11-13T06:53:56;8.10;89.50
22006;DHT22;11167;46.988;15.470;2022-11-13T06:55:59;8.10;89.50
22006;DHT22;11167;46.988;15.470;2022-11-13T06:58:00;8.10;89.40
22006;DHT22;11167;46.988;15.470;2022-11-13T07:00:04;8.10;89.40
22006;DHT22;11167;46.988;15.470;2022-11-13T07:02:08;8.10;89.40
22006;DHT22;11167;46.988;15.470;2022-11-13T07:04:11;8.10;89.40
22006;DHT22;11167;46.988;15.470;2022-11-13T07:06:20;8.10;89.50
22006;DHT22;11167;46.988;15.470;2022-11-13T07:08:18;8.10;89.50
22006;DHT22;11167;46.988;15.470;2022-11-13T07:10:19;8.10;89.50
22006;DHT22;11167;46.988;15.470;2022-11-13T07:12:20;8.10;90.10
22006;DHT22;11167;46.988;15.470;2022-11-13T07:14:21;8.10;89.50
22006;DHT22;11167;46.988;15.470;2022-11-13T07:16:22;8.10;89.60
22006;DHT22;11167;46.988;15.470;2022-11-13T07:18:24;8.10;89.50
22006;DHT22;11167;46.988;15.470;2022-11-13T07:20:25;8.10;89.60
22006;DHT22;11167;46.988;15.470;2022-11-13T07:22:28;8.10;89.60
22006;DHT22;11167;46.988;15.470;2022-11-13T07:24:30;8.10;89.60
22006;DHT22;11167;46.988;15.470;2022-11-13T07:26:31;8.10;90.00
22006;DHT22;11167;46.988;15.470;2022-11-13T07:28:32;8.10;89.70
22006;DHT22;11167;46.988;15.470;2022-11-13T07:30:33;8.10;89.60
22006;DHT22;11167;46.988;15.470;2022-11-13T07:32:34;8.10;89.80
22006;DHT22;11167;46.988;15.470;2022-11-13T07:34:35;8.10;89.60
22006;DHT22;11167;46.988;15.470;2022-11-13T07:36:36;8.10;89.70
22006;DHT22;11167;46.988;15.470;2022-11-13T07:38:37;8.10;89.60
22006;DHT22;11167;46.988;15.470;2022-11-13T07:40:39;8.10;89.60
22006;DHT22;11167;46.988;15.470;2022-11-13T07:42:40;8.10;89.60
22006;DHT22;11167;46.988;15.470;2022-11-13T07:44:41;8.10;89.60
22006;DHT22;11167;46.988;15.470;2022-11-13T07:46:42;8.20;89.70
22006;DHT22;11167;46.988;15.470;2022-11-13T07:48:43;8.10;89.70
22006;DHT22;11167;46.988;15.470;2022-11-13T07:50:44;8.20;89.60
22006;DHT22;11167;46.988;15.470;2022-11-13T07:52:45;8.20;90.00
22006;DHT22;11167;46.988;15.470;2022-11-13T07:54:47;8.20;89.40
22006;DHT22;11167;46.988;15.470;2022-11-13T07:56:48;8.20;89.70
22006;DHT22;11167;46.988;15.470;2022-11-13T07:58:49;8.20;90.20
22006;DHT22;11167;46.988;15.470;2022-11-13T08:00:50;8.20;89.70
22006;DHT22;11167;46.988;15.470;2022-11-13T08:02:51;8.20;89.60
22006;DHT22;11167;46.988;15.470;2022-11-13T08:04:53;8.20;89.70
22006;DHT22;11167;46.988;15.470;2022-11-13T08:06:54;8.20;89.70
22006;DHT22;11167;46.988;15.470;2022-11-13T08:08:56;8.20;89.70
22006;DHT22;11167;46.988;15.470;2022-11-13T08:13:20;8.20;89.70
22006;DHT22;11167;46.988;15.470;2022-11-13T08:15:21;8.20;90.20
22006;DHT22;11167;46.988;15.470;2022-11-13T08:17:22;8.30;90.20
22006;DHT22;11167;46.988;15.470;2022-11-13T08:19:24;8.30;89.90
22006;DHT22;11167;46.988;15.470;2022-11-13T08:21:25;8.30;89.80
22006;DHT22;11167;46.988;15.470;2022-11-13T08:23:26;8.30;89.80
22006;DHT22;11167;46.988;15.470;2022-11-13T08:25:28;8.30;89.80
22006;DHT22;11167;46.988;15.470;2022-11-13T08:27:30;8.30;89.80
22006;DHT22;11167;46.988;15.470;2022-11-13T08:29:31;8.30;89.80
22006;DHT22;11167;46.988;15.470;2022-11-13T08:31:32;8.30;89.80
22006;DHT22;11167;46.988;15.470;2022-11-13T08:33:33;8.40;90.00
22006;DHT22;11167;46.988;15.470;2022-11-13T08:35:36;8.30;89.80
22006;DHT22;11167;46.988;15.470;2022-11-13T08:37:37;8.30;89.90
22006;DHT22;11167;46.988;15.470;2022-11-13T08:39:38;8.40;89.90
22006;DHT22;11167;46.988;15.470;2022-11-13T08:41:39;8.40;89.90
22006;DHT22;11167;46.988;15.470;2022-11-13T08:43:40;8.40;89.90
22006;DHT22;11167;46.988;15.470;2022-11-13T08:45:46;8.40;89.80
22006;DHT22;11167;46.988;15.470;2022-11-13T08:47:49;8.40;89.80
22006;DHT22;11167;46.988;15.470;2022-11-13T08:49:50;8.40;89.80
22006;DHT22;11167;46.988;15.470;2022-11-13T08:51:51;8.40;89.80
22006;DHT22;11167;46.988;15.470;2022-11-13T08:53:55;8.40;89.90
22006;DHT22;11167;46.988;15.470;2022-11-13T08:56:01;8.50;90.00
22006;DHT22;11167;46.988;15.470;2022-11-13T08:58:03;8.40;89.90
22006;DHT22;11167;46.988;15.470;2022-11-13T09:00:05;8.50;90.00
22006;DHT22;11167;46.988;15.470;2022-11-13T09:02:12;8.50;90.00
22006;DHT22;11167;46.988;15.470;2022-11-13T09:04:21;8.50;90.00
22006;DHT22;11167;46.988;15.470;2022-11-13T09:06:25;8.50;90.00
22006;DHT22;11167;46.988;15.470;2022-11-13T09:08:29;8.50;90.00
22006;DHT22;11167;46.988;15.470;2022-11-13T09:10:31;8.50;90.00
22006;DHT22;11167;46.988;15.470;2022-11-13T09:12:32;8.50;90.00
22006;DHT22;11167;46.988;15.470;2022-11-13T09:14:55;8.50;90.00
22006;DHT22;11167;46.988;15.470;2022-11-13T09:16:58;8.50;90.00
22006;DHT22;11167;46.988;15.470;2022-11-13T09:19:00;8.60;90.00
22006;DHT22;11167;46.988;15.470;2022-11-13T09:21:01;8.60;90.00
22006;DHT22;11167;46.988;15.470;2022-11-13T09:23:05;8.60;90.00
22006;DHT22;11167;46.988;15.470;2022-11-13T09:25:08;8.60;90.00
22006;DHT22;11167;46.988;15.470;2022-11-13T09:27:09;8.60;90.00
22006;DHT22;11167;46.988;15.470;2022-11-13T09:29:10;8.60;90.00
22006;DHT22;11167;46.988;15.470;2022-11-13T09:31:11;8.60;90.00
22006;DHT22;11167;46.988;15.470;2022-11-13T09:33:12;8.70;90.00
22006;DHT22;11167;46.988;15.470;2022-11-13T09:35:17;8.70;90.00
22006;DHT22;11167;46.988;15.470;2022-11-13T09:37:26;8.70;90.10
22006;DHT22;11167;46.988;15.470;2022-11-13T09:39:31;8.70;90.00
22006;DHT22;11167;46.988;15.470;2022-11-13T09:41:36;8.70;90.10
22006;DHT22;11167;46.988;15.470;2022-11-13T09:45:51;8.80;90.10
22006;DHT22;11167;46.988;15.470;2022-11-13T09:50:23;8.80;90.10
22006;DHT22;11167;46.988;15.470;2022-11-13T09:52:40;8.80;90.10
22006;DHT22;11167;46.988;15.470;2022-11-13T09:54:33;8.80;90.20
22006;DHT22;11167;46.988;15.470;2022-11-13T10:00:53;8.90;90.20
22006;DHT22;11167;46.988;15.470;2022-11-13T10:07:48;9.00;90.30
22006;DHT22;11167;46.988;15.470;2022-11-13T10:12:16;9.10;90.40
22006;DHT22;11167;46.988;15.470;2022-11-13T10:14:22;9.10;90.40
22006;DHT22;11167;46.988;15.470;2022-11-13T10:16:33;9.10;90.50
22006;DHT22;11167;46.988;15.470;2022-11-13T10:18:36;9.20;90.90
22006;DHT22;11167;46.988;15.470;2022-11-13T10:20:54;9.20;90.60
22006;DHT22;11167;46.988;15.470;2022-11-13T10:23:07;9.20;90.60
22006;DHT22;11167;46.988;15.470;2022-11-13T10:25:21;9.30;90.60
22006;DHT22;11167;46.988;15.470;2022-11-13T10:27:23;9.30;90.60
22006;DHT22;11167;46.988;15.470;2022-11-13T10:29:27;9.40;90.70
22006;DHT22;11167;46.988;15.470;2022-11-13T10:31:39;9.40;90.70
22006;DHT22;11167;46.988;15.470;2022-11-13T10:33:33;9.50;90.70
22006;DHT22;11167;46.988;15.470;2022-11-13T10:39:52;9.60;90.80
22006;DHT22;11167;46.988;15.470;2022-11-13T10:41:54;9.70;90.80
22006;DHT22;11167;46.988;15.470;2022-11-13T10:44:06;9.70;90.90
22006;DHT22;11167;46.988;15.470;2022-11-13T10:46:26;9.70;90.90
22006;DHT22;11167;46.988;15.470;2022-11-13T10:48:31;9.80;90.90
22006;DHT22;11167;46.988;15.470;2022-11-13T10:50:33;9.90;91.00
22006;DHT22;11167;46.988;15.470;2022-11-13T10:52:43;9.90;91.20
22006;DHT22;11167;46.988;15.470;2022-11-13T10:54:40;10.00;91.00
22006;DHT22;11167;46.988;15.470;2022-11-13T10:56:41;10.00;91.10
22006;DHT22;11167;46.988;15.470;2022-11-13T10:58:42;10.10;91.10
22006;DHT22;11167;46.988;15.470;2022-11-13T11:00:44;10.10;91.10
22006;DHT22;11167;46.988;15.470;2022-11-13T11:02:47;10.20;91.10
22006;DHT22;11167;46.988;15.470;2022-11-13T11:05:00;10.20;91.40
22006;DHT22;11167;46.988;15.470;2022-11-13T11:07:17;10.30;91.30
22006;DHT22;11167;46.988;15.470;2022-11-13T11:09:30;10.30;91.20
22006;DHT22;11167;46.988;15.470;2022-11-13T11:11:32;10.40;91.30
22006;DHT22;11167;46.988;15.470;2022-11-13T11:13:51;10.40;91.30
22006;DHT22;11167;46.988;15.470;2022-11-13T11:16:17;10.50;91.30
22006;DHT22;11167;46.988;15.470;2022-11-13T11:18:23;10.60;91.30
22006;DHT22;11167;46.988;15.470;2022-11-13T11:22:36;10.70;91.40
22006;DHT22;11167;46.988;15.470;2022-11-13T11:24:41;10.80;91.40
22006;DHT22;11167;46.988;15.470;2022-11-13T11:27:12;10.80;91.40
22006;DHT22;11167;46.988;15.470;2022-11-13T11:29:29;10.80;91.40
22006;DHT22;11167;46.988;15.470;2022-11-13T11:31:53;10.90;91.50
22006;DHT22;11167;46.988;15.470;2022-11-13T11:36:42;11.00;91.50
22006;DHT22;11167;46.988;15.470;2022-11-13T11:41:07;11.20;91.60
22006;DHT22;11167;46.988;15.470;2022-11-13T11:43:33;11.20;91.60
22006;DHT22;11167;46.988;15.470;2022-11-13T11:45:42;11.30;91.60
22006;DHT22;11167;46.988;15.470;2022-11-13T11:47:39;11.40;91.60
22006;DHT22;11167;46.988;15.470;2022-11-13T11:49:42;11.40;91.70
22006;DHT22;11167;46.988;15.470;2022-11-13T11:52:07;11.50;92.10
22006;DHT22;11167;46.988;15.470;2022-11-13T12:03:55;11.80;91.80
22006;DHT22;11167;46.988;15.470;2022-11-13T12:06:18;11.90;91.80
22006;DHT22;11167;46.988;15.470;2022-11-13T12:08:35;11.90;91.80
22006;DHT22;11167;46.988;15.470;2022-11-13T12:13:32;12.00;91.90
22006;DHT22;11167;46.988;15.470;2022-11-13T12:15:42;12.10;91.90
22006;DHT22;11167;46.988;15.470;2022-11-13T12:22:26;12.30;92.30
22006;DHT22;11167;46.988;15.470;2022-11-13T12:24:44;12.40;92.00
22006;DHT22;11167;46.988;15.470;2022-11-13T12:26:53;12.40;92.00
22006;DHT22;11167;46.988;15.470;2022-11-13T12:33:56;12.60;92.00
22006;DHT22;11167;46.988;15.470;2022-11-13T12:35:54;12.70;92.00
22006;DHT22;11167;46.988;15.470;2022-11-13T12:42:52;12.90;92.10
22006;DHT22;11167;46.988;15.470;2022-11-13T12:47:22;13.00;92.10
22006;DHT22;11167;46.988;15.470;2022-11-13T12:49:26;13.10;92.10
22006;DHT22;11167;46.988;15.470;2022-11-13T12:51:37;13.10;92.10
22006;DHT22;11167;46.988;15.470;2022-11-13T12:55:54;13.20;92.10
22006;DHT22;11167;46.988;15.470;2022-11-13T12:57:51;13.30;92.10
22006;DHT22;11167;46.988;15.470;2022-11-13T12:59:55;13.30;92.10
22006;DHT22;11167;46.988;15.470;2022-11-13T13:02:02;13.40;92.10
22006;DHT22;11167;46.988;15.470;2022-11-13T13:06:58;13.50;92.20
22006;DHT22;11167;46.988;15.470;2022-11-13T13:09:59;13.60;92.20
22006;DHT22;11167;46.988;15.470;2022-11-13T13:15:58;13.70;92.20
22006;DHT22;11167;46.988;15.470;2022-11-13T13:18:05;13.80;92.20
22006;DHT22;11167;46.988;15.470;2022-11-13T13:24:33;13.90;92.20
22006;DHT22;11167;46.988;15.470;2022-11-13T13:26:43;14.00;92.20
22006;DHT22;11167;46.988;15.470;2022-11-13T13:28:41;14.00;92.20
22006;DHT22;11167;46.988;15.470;2022-11-13T13:30:55;14.10;92.30
22006;DHT22;11167;46.988;15.470;2022-11-13T13:38:06;14.30;92.20
22006;DHT22;11167;46.988;15.470;2022-11-13T13:40:33;14.30;92.20
22006;DHT22;11167;46.988;15.470;2022-11-13T13:45:01;14.40;92.20
22006;DHT22;11167;46.988;15.470;2022-11-13T13:46:59;14.50;92.30
22006;DHT22;11167;46.988;15.470;2022-11-13T13:49:05;14.50;92.20
22006;DHT22;11167;46.988;15.470;2022-11-13T13:51:54;14.50;92.20
22006;DHT22;11167;46.988;15.470;2022-11-13T13:53:25;14.60;92.20
22006;DHT22;11167;46.988;15.470;2022-11-13T13:55:38;14.60;92.30
22006;DHT22;11167;46.988;15.470;2022-11-13T13:57:41;14.70;92.20
22006;DHT22;11167;46.988;15.470;2022-11-13T13:59:47;14.70;92.10
22006;DHT22;11167;46.988;15.470;2022-11-13T14:04:21;14.80;92.20
22006;DHT22;11167;46.988;15.470;2022-11-13T14:06:23;14.90;92.10
22006;DHT22;11167;46.988;15.470;2022-11-13T14:08:25;14.90;92.10
22006;DHT22;11167;46.988;15.470;2022-11-13T14:10:27;14.90;92.10
22006;DHT22;11167;46.988;15.470;2022-11-13T14:12:28;15.00;92.10
22006;DHT22;11167;46.988;15.470;2022-11-13T14:14:31;15.00;92.10
22006;DHT22;11167;46.988;15.470;2022-11-13T14:16:47;15.00;92.10
22006;DHT22;11167;46.988;15.470;2022-11-13T14:18:48;15.10;92.00
22006;DHT22;11167;46.988;15.470;2022-11-13T14:20:52;15.10;92.00
22006;DHT22;11167;46.988;15.470;2022-11-13T14:22:56;15.10;92.00
22006;DHT22;11167;46.988;15.470;2022-11-13T14:24:59;15.20;92.00
22006;DHT22;11167;46.988;15.470;2022-11-13T14:27:03;15.20;91.90